createdAt,value
2022-08-21T00:06:52.401Z,18.00
2022-08-21T00:09:20.922Z,18.00
2022-08-21T00:11:48.806Z,18.00
2022-08-21T00:14:16.257Z,18.00
2022-08-21T00:24:05.972Z,18.00
2022-08-21T00:29:04.811Z,18.00
2022-08-21T00:44:09.369Z,17.90
2022-08-21T00:46:36.919Z,17.90
2022-08-21T00:49:05.425Z,17.90
2022-08-21T00:51:56.201Z,17.60
2022-08-21T00:54:26.677Z,17.90
2022-08-21T00:56:59.652Z,17.90
2022-08-21T00:59:30.497Z,17.80
2022-08-21T01:11:48.568Z,17.90
2022-08-21T01:16:47.129Z,17.90
2022-08-21T01:19:15.951Z,18.00
2022-08-21T01:24:12.287Z,17.90
2022-08-21T01:29:11.178Z,18.00
2022-08-21T01:34:06.602Z,17.90
2022-08-21T01:36:34.863Z,17.90
2022-08-21T01:41:29.195Z,18.00
2022-08-21T01:56:15.613Z,17.80
2022-08-21T01:58:44.911Z,17.80
2022-08-21T02:03:39.840Z,17.80
2022-08-21T02:06:08.053Z,17.40
2022-08-21T02:08:35.619Z,17.70
2022-08-21T02:25:57.573Z,17.80
2022-08-21T02:30:54.060Z,17.80
2022-08-21T02:38:23.227Z,17.70
2022-08-21T02:40:51.821Z,17.70
2022-08-21T02:43:20.449Z,17.60
2022-08-21T02:45:48.684Z,17.70
2022-08-21T02:48:20.043Z,17.70
2022-08-21T02:50:54.532Z,17.50
2022-08-21T02:55:51.148Z,17.70
2022-08-21T02:58:24.742Z,17.60
2022-08-21T03:08:17.953Z,17.50
2022-08-21T03:10:48.694Z,17.50
2022-08-21T03:13:16.887Z,17.50
2022-08-21T03:18:12.234Z,17.50
2022-08-21T03:20:40.901Z,17.50
2022-08-21T03:23:13.153Z,17.50
2022-08-21T03:25:42.138Z,17.50
2022-08-21T03:28:14.707Z,17.50
2022-08-21T03:30:43.529Z,17.60
2022-08-21T03:33:13.222Z,17.40
2022-08-21T03:35:44.170Z,17.40
2022-08-21T03:48:06.062Z,17.40
2022-08-21T03:50:40.636Z,17.30
2022-08-21T03:55:48.218Z,17.40
2022-08-21T03:58:18.076Z,17.40
2022-08-21T04:00:50.901Z,17.20
2022-08-21T04:08:14.926Z,17.30
2022-08-21T04:13:10.009Z,17.20
2022-08-21T04:18:05.458Z,17.30
2022-08-21T04:30:28.526Z,17.40
2022-08-21T04:32:57.196Z,17.20
2022-08-21T04:35:25.936Z,17.20
2022-08-21T04:40:22.534Z,17.00
2022-08-21T04:42:52.325Z,17.20
2022-08-21T04:45:26.165Z,17.20
2022-08-21T04:47:56.835Z,17.10
2022-08-21T04:50:30.237Z,18.80
2022-08-21T04:55:28.472Z,17.00
2022-08-21T04:57:56.979Z,17.00
2022-08-21T05:00:25.654Z,17.00
2022-08-21T05:02:57.411Z,17.00
2022-08-21T05:05:25.035Z,17.10
2022-08-21T05:07:53.893Z,17.00
2022-08-21T05:10:21.620Z,16.90
2022-08-21T05:15:18.227Z,17.10
2022-08-21T05:30:20.709Z,17.00
2022-08-21T05:40:21.342Z,16.70
2022-08-21T05:45:43.034Z,17.20
2022-08-21T05:48:16.173Z,16.90
2022-08-21T05:53:11.831Z,16.90
2022-08-21T05:58:20.269Z,16.90
2022-08-21T06:00:48.981Z,16.80
2022-08-21T06:03:26.208Z,17.10
2022-08-21T06:10:49.991Z,16.90
2022-08-21T06:13:18.787Z,16.90
2022-08-21T06:20:41.463Z,16.90
2022-08-21T06:28:08.401Z,16.90
2022-08-21T06:30:37.220Z,16.90
2022-08-21T06:33:04.997Z,16.80
2022-08-21T06:40:29.779Z,17.20
2022-08-21T06:42:59.484Z,17.10
2022-08-21T06:53:11.550Z,17.20
2022-08-21T06:55:39.356Z,17.20
2022-08-21T07:05:30.923Z,17.30
2022-08-21T07:07:58.602Z,17.30
2022-08-21T07:10:26.634Z,17.50
2022-08-21T07:13:01.205Z,17.50
2022-08-21T07:15:31.300Z,17.50
2022-08-21T07:18:01.653Z,17.50
2022-08-21T07:20:32.279Z,17.50
2022-08-21T07:23:03.005Z,17.50
2022-08-21T07:30:25.242Z,17.40
2022-08-21T07:35:21.343Z,17.50
2022-08-21T07:42:45.138Z,17.60
2022-08-21T07:45:12.802Z,17.60
2022-08-21T07:55:06.616Z,17.60
2022-08-21T08:05:02.120Z,17.70
2022-08-21T08:19:50.313Z,18.50
2022-08-21T08:22:20.369Z,17.90
2022-08-21T08:24:49.307Z,17.90
2022-08-21T08:27:17.448Z,18.00
2022-08-21T08:34:40.473Z,18.10
2022-08-21T08:37:09.635Z,18.20
2022-08-21T08:42:38.048Z,17.80
2022-08-21T08:45:08.100Z,18.10
2022-08-21T08:47:39.567Z,18.20
2022-08-21T08:50:14.806Z,18.00
2022-08-21T08:52:48.688Z,18.40
2022-08-21T08:55:27.540Z,18.40
2022-08-21T09:00:25.062Z,18.50
2022-08-21T09:02:58.374Z,18.30
2022-08-21T09:05:31.738Z,18.60
2022-08-21T09:08:26.390Z,19.00
2022-08-21T09:11:06.065Z,18.70
2022-08-21T09:14:04.321Z,19.10
2022-08-21T09:17:13.121Z,19.00
2022-08-21T09:19:59.669Z,19.00
2022-08-21T09:22:48.899Z,19.20
2022-08-21T09:25:24.118Z,19.50
2022-08-21T09:30:24.563Z,19.70
2022-08-21T09:35:22.253Z,20.00
2022-08-21T09:37:57.633Z,19.80
2022-08-21T09:40:40.007Z,19.90
2022-08-21T09:43:12.572Z,19.80
2022-08-21T09:45:42.885Z,20.20
2022-08-21T09:48:33.137Z,20.20
2022-08-21T09:51:10.639Z,19.80
2022-08-21T09:53:43.983Z,20.00
2022-08-21T09:56:47.332Z,20.10
2022-08-21T09:59:17.001Z,20.10
2022-08-21T10:01:50.404Z,20.10
2022-08-21T10:04:22.859Z,20.20
2022-08-21T10:09:23.368Z,20.90
2022-08-21T10:12:05.221Z,20.80
2022-08-21T10:14:58.566Z,20.80
2022-08-21T10:17:44.523Z,20.90
2022-08-21T10:20:26.441Z,21.10
2022-08-21T10:23:21.766Z,21.20
2022-08-21T10:26:14.647Z,21.00
2022-08-21T10:28:47.539Z,21.30
2022-08-21T10:31:46.247Z,21.30
2022-08-21T10:34:16.067Z,21.70
2022-08-21T10:37:10.443Z,21.30
2022-08-21T10:39:56.480Z,21.40
2022-08-21T10:42:50.214Z,21.60
2022-08-21T10:45:23.142Z,21.60
2022-08-21T10:48:02.048Z,21.60
2022-08-21T10:50:43.472Z,22.00
2022-08-21T10:53:36.276Z,21.70
2022-08-21T10:56:20.483Z,22.10
2022-08-21T11:01:24.546Z,22.20
2022-08-21T11:04:12.357Z,22.30
2022-08-21T11:06:44.113Z,22.40
2022-08-21T11:09:15.979Z,22.50
2022-08-21T11:11:54.680Z,22.60
2022-08-21T11:14:40.118Z,22.50
2022-08-21T11:17:23.302Z,22.40
2022-08-21T11:19:55.949Z,22.40
2022-08-21T11:22:27.019Z,22.40
2022-08-21T11:25:22.077Z,22.60
2022-08-21T11:28:00.431Z,22.50
2022-08-21T11:30:49.314Z,22.30
2022-08-21T11:33:35.950Z,21.90
2022-08-21T11:36:26.940Z,22.30
2022-08-21T11:39:12.436Z,23.00
2022-08-21T11:41:47.476Z,22.60
2022-08-21T11:44:27.735Z,22.90
2022-08-21T11:47:26.714Z,23.20
2022-08-21T11:50:34.225Z,22.50
2022-08-21T11:53:18.735Z,23.10
2022-08-21T11:55:50.595Z,23.30
2022-08-21T11:58:23.129Z,23.30
2022-08-21T12:01:04.793Z,23.70
2022-08-21T12:03:36.780Z,23.20
2022-08-21T12:06:13.219Z,23.10
2022-08-21T12:08:42.948Z,23.30
2022-08-21T12:13:57.952Z,23.60
2022-08-21T12:16:30.843Z,23.80
2022-08-21T12:19:23.990Z,24.00
2022-08-21T12:22:06.097Z,23.80
2022-08-21T12:27:14.984Z,24.30
2022-08-21T12:29:48.964Z,24.00
2022-08-21T12:34:54.004Z,24.20
2022-08-21T12:37:36.496Z,24.60
2022-08-21T12:40:10.794Z,24.90
2022-08-21T12:42:52.922Z,24.80
2022-08-21T12:45:34.516Z,25.10
2022-08-21T12:48:21.067Z,25.00
2022-08-21T12:50:57.488Z,25.10
2022-08-21T12:53:31.094Z,25.20
2022-08-21T12:56:02.836Z,25.10
2022-08-21T13:01:05.806Z,24.90
2022-08-21T13:03:37.994Z,24.80
2022-08-21T13:06:06.708Z,24.70
2022-08-21T13:08:40.969Z,24.70
2022-08-21T13:11:15.276Z,24.70
2022-08-21T13:13:46.966Z,24.70
2022-08-21T13:16:25.986Z,24.60
2022-08-21T13:18:56.976Z,24.50
2022-08-21T13:21:33.302Z,24.30
2022-08-21T13:24:42.867Z,24.50
2022-08-21T13:27:21.305Z,24.10
2022-08-21T13:32:26.767Z,23.90
2022-08-21T13:37:24.267Z,24.00
2022-08-21T13:39:53.269Z,24.00
2022-08-21T13:42:21.220Z,23.80
2022-08-21T13:44:49.144Z,23.80
2022-08-21T13:47:17.742Z,23.80
2022-08-21T13:49:47.838Z,23.90
2022-08-21T13:52:26.750Z,24.00
2022-08-21T13:55:08.472Z,24.10
2022-08-21T14:00:30.013Z,24.00
2022-08-21T14:03:09.976Z,24.40
2022-08-21T14:05:44.159Z,24.70
2022-08-21T14:08:21.153Z,24.80
2022-08-21T14:13:43.928Z,25.50
2022-08-21T14:16:26.978Z,25.30
2022-08-21T14:19:03.721Z,25.00
2022-08-21T14:21:36.946Z,25.00
2022-08-21T14:24:13.525Z,24.60
2022-08-21T14:27:04.313Z,24.90
2022-08-21T14:29:36.488Z,24.80
2022-08-21T14:32:24.459Z,24.90
2022-08-21T14:57:10.246Z,24.80
2022-08-21T14:59:38.752Z,24.80
2022-08-21T15:04:34.093Z,25.10
2022-08-21T15:11:58.496Z,25.20
2022-08-21T15:14:28.178Z,25.30
2022-08-21T15:21:49.731Z,25.80
2022-08-21T15:24:17.121Z,25.60
2022-08-21T15:26:45.528Z,25.60
2022-08-21T15:31:55.573Z,25.70
2022-08-21T15:34:24.696Z,25.60
2022-08-21T15:36:56.219Z,25.60
2022-08-21T15:39:30.962Z,25.60
2022-08-21T15:44:28.443Z,25.50
2022-08-21T15:56:49.219Z,25.60
2022-08-21T15:59:19.399Z,25.60
2022-08-21T16:04:21.898Z,25.60
2022-08-21T16:14:24.172Z,25.50
2022-08-21T16:39:01.423Z,25.20
2022-08-21T16:41:33.518Z,25.10
2022-08-21T16:46:31.673Z,25.10
2022-08-21T16:58:49.919Z,24.80
2022-08-21T17:01:19.793Z,24.70
2022-08-21T17:03:48.480Z,24.60
2022-08-21T17:06:16.592Z,24.60
2022-08-21T17:11:37.103Z,24.30
2022-08-21T17:14:14.535Z,24.50
2022-08-21T17:16:45.409Z,24.10
2022-08-21T17:31:31.100Z,23.80
2022-08-21T17:36:28.723Z,23.60
2022-08-21T17:41:25.304Z,23.50
2022-08-21T17:43:54.544Z,23.40
2022-08-21T17:46:28.980Z,23.30
2022-08-21T17:48:56.937Z,23.40
2022-08-21T17:56:19.930Z,23.10
2022-08-21T17:58:50.245Z,23.40
2022-08-21T18:13:52.739Z,22.70
2022-08-21T18:18:49.176Z,22.50
2022-08-21T18:26:21.745Z,22.10
2022-08-21T18:31:16.086Z,22.00
2022-08-21T18:36:27.107Z,21.70
2022-08-21T18:38:55.151Z,21.60
2022-08-21T18:41:22.660Z,21.60
2022-08-21T19:11:06.628Z,20.80
2022-08-21T19:13:34.610Z,20.40
2022-08-21T19:18:37.262Z,20.30
2022-08-21T19:21:04.497Z,20.30
2022-08-21T19:26:05.182Z,20.20
2022-08-21T19:28:36.629Z,20.20
2022-08-21T19:31:10.741Z,20.20
2022-08-21T19:33:41.246Z,20.10
2022-08-21T19:36:12.071Z,20.10
2022-08-21T19:38:40.224Z,20.10
2022-08-21T19:41:10.809Z,20.10
2022-08-21T19:43:49.785Z,19.70
2022-08-21T19:46:25.720Z,19.90
2022-08-21T19:56:27.800Z,19.70
2022-08-21T20:01:25.609Z,19.60
2022-08-21T20:03:54.259Z,19.70
2022-08-21T20:11:26.491Z,19.60
2022-08-21T20:13:54.383Z,19.40
2022-08-21T20:28:44.283Z,19.30
2022-08-21T20:41:17.824Z,19.50
2022-08-21T20:43:49.506Z,19.10
2022-08-21T20:46:21.261Z,19.00
2022-08-21T20:48:50.032Z,19.00
2022-08-21T20:51:40.944Z,19.30
2022-08-21T20:54:29.156Z,18.90
2022-08-21T20:57:19.923Z,19.10
2022-08-21T20:59:55.975Z,18.80
2022-08-21T21:04:54.521Z,18.70
2022-08-21T21:07:37.028Z,18.90
2022-08-21T21:10:10.445Z,18.60
2022-08-21T21:12:42.423Z,18.60
2022-08-21T21:15:28.019Z,18.40
2022-08-21T21:18:14.048Z,18.70
2022-08-21T21:20:57.387Z,18.50
2022-08-21T21:23:37.749Z,18.30
2022-08-21T21:26:17.333Z,18.40
2022-08-21T21:29:22.172Z,18.10
2022-08-21T21:36:56.507Z,17.70
2022-08-21T21:39:38.472Z,17.70
2022-08-21T21:42:35.596Z,18.10
2022-08-21T21:45:13.311Z,17.60
2022-08-21T21:47:53.107Z,17.80
2022-08-21T21:53:12.847Z,17.80
2022-08-21T21:58:30.178Z,17.50
2022-08-21T22:01:21.140Z,17.70
2022-08-21T22:04:03.571Z,17.60
2022-08-21T22:06:51.310Z,17.70
2022-08-21T22:09:29.887Z,17.60
2022-08-21T22:12:02.589Z,17.90
2022-08-21T22:14:42.357Z,17.60
2022-08-21T22:17:32.875Z,17.60
2022-08-21T22:20:17.580Z,17.60
2022-08-21T22:22:46.134Z,17.50
2022-08-21T22:25:23.084Z,17.50
2022-08-21T22:27:58.140Z,17.50
2022-08-21T22:30:48.841Z,17.40
2022-08-21T22:35:51.568Z,17.40
2022-08-21T22:38:26.384Z,17.40
2022-08-21T22:41:12.836Z,17.40
2022-08-21T22:44:03.333Z,17.40
2022-08-21T22:46:50.391Z,17.20
2022-08-21T22:49:29.493Z,17.20
2022-08-21T22:52:29.001Z,17.30
2022-08-21T22:55:01.347Z,17.20
2022-08-21T22:57:32.286Z,17.20
2022-08-21T23:00:13.266Z,17.20
2022-08-21T23:05:22.364Z,17.20
2022-08-21T23:07:51.003Z,17.10
2022-08-21T23:10:40.791Z,17.10
2022-08-21T23:13:11.673Z,17.00
2022-08-21T23:18:29.357Z,16.80
2022-08-21T23:21:28.164Z,17.00
2022-08-21T23:24:19.357Z,16.60
2022-08-21T23:27:15.220Z,16.90
2022-08-21T23:30:00.258Z,16.50
2022-08-21T23:32:54.633Z,16.80
2022-08-21T23:39:13.242Z,16.80
2022-08-21T23:42:18.169Z,16.60
2022-08-21T23:45:17.749Z,17.00
2022-08-21T23:48:29.367Z,16.90
2022-08-21T23:51:25.936Z,17.10
2022-08-21T23:54:05.457Z,16.80
2022-08-21T23:56:47.366Z,16.40
